createdAt,value
2023-04-18T00:00:12.578Z,101146.08
2023-04-18T00:02:44.245Z,101145.55
2023-04-18T00:05:12.795Z,101147.56
2023-04-18T00:07:41.492Z,101145.88
2023-04-18T00:10:09.734Z,101143.15
2023-04-18T00:12:38.556Z,101142.08
2023-04-18T00:15:10.215Z,101143.75
2023-04-18T00:17:38.908Z,101140.23
2023-04-18T00:20:10.647Z,101139.30
2023-04-18T00:22:42.848Z,101144.84
2023-04-18T00:25:11.247Z,101149.96
2023-04-18T00:27:39.525Z,101151.02
2023-04-18T00:30:08.871Z,101152.80
2023-04-18T00:32:39.117Z,101143.05
2023-04-18T00:35:07.568Z,101143.59
2023-04-18T00:37:36.183Z,101143.01
2023-04-18T00:40:05.798Z,101140.95
2023-04-18T00:42:34.575Z,101138.20
2023-04-18T00:45:02.920Z,101131.40
2023-04-18T00:47:31.219Z,101141.14
2023-04-18T00:49:59.645Z,101136.98
2023-04-18T00:52:27.966Z,101129.90
2023-04-18T00:54:56.231Z,101130.67
2023-04-18T00:57:24.781Z,101133.35
2023-04-18T00:59:52.960Z,101128.69
2023-04-18T01:02:21.205Z,101134.02
2023-04-18T01:04:49.400Z,101128.41
2023-04-18T01:07:17.698Z,101123.38
2023-04-18T01:09:45.941Z,101125.06
2023-04-18T01:12:14.323Z,101121.54
2023-04-18T01:14:45.321Z,101115.06
2023-04-18T01:17:14.122Z,101118.94
2023-04-18T01:19:42.793Z,101123.16
2023-04-18T01:22:11.030Z,101114.51
2023-04-18T01:24:39.482Z,101117.67
2023-04-18T01:27:07.781Z,101116.95
2023-04-18T01:29:37.849Z,101112.83
2023-04-18T01:32:07.410Z,101110.00
2023-04-18T01:34:35.590Z,101117.35
2023-04-18T01:37:07.167Z,101121.85
2023-04-18T01:39:35.946Z,101121.59
2023-04-18T01:42:04.238Z,101124.38
2023-04-18T01:44:33.092Z,101127.67
2023-04-18T01:47:01.390Z,101128.48
2023-04-18T01:49:29.704Z,101131.88
2023-04-18T01:51:57.765Z,101126.98
2023-04-18T01:54:25.868Z,101118.92
2023-04-18T01:56:54.125Z,101121.79
2023-04-18T01:59:22.455Z,101125.13
2023-04-18T02:01:50.924Z,101123.49
2023-04-18T02:04:19.143Z,101116.77
2023-04-18T02:06:47.869Z,101117.70
2023-04-18T02:09:16.440Z,101119.96
2023-04-18T02:11:44.664Z,101118.69
2023-04-18T02:14:13.137Z,101120.05
2023-04-18T02:16:41.694Z,101120.23
2023-04-18T02:19:09.898Z,101124.03
2023-04-18T02:21:38.094Z,101123.86
2023-04-18T02:24:06.621Z,101124.25
2023-04-18T02:26:34.778Z,101124.98
2023-04-18T02:29:02.902Z,101113.98
2023-04-18T02:31:32.240Z,101107.77
2023-04-18T02:34:00.573Z,101099.48
2023-04-18T02:36:28.926Z,101101.41
2023-04-18T02:38:57.138Z,101106.95
2023-04-18T02:41:25.638Z,101102.96
2023-04-18T02:43:55.494Z,101102.33
2023-04-18T02:46:23.762Z,101112.20
2023-04-18T02:48:52.036Z,101109.10
2023-04-18T02:51:20.631Z,101102.96
2023-04-18T02:53:48.962Z,101103.08
2023-04-18T02:56:17.580Z,101105.83
2023-04-18T02:59:04.805Z,101100.67
2023-04-18T03:02:08.498Z,101102.70
2023-04-18T03:04:37.919Z,101107.91
2023-04-18T03:07:08.952Z,101106.17
2023-04-18T03:09:38.757Z,101104.80
2023-04-18T03:12:15.467Z,101109.29
2023-04-18T03:14:44.670Z,101110.46
2023-04-18T03:17:13.498Z,101111.73
2023-04-18T03:19:45.565Z,101114.53
2023-04-18T03:22:15.148Z,101116.76
2023-04-18T03:24:49.035Z,101117.33
2023-04-18T03:27:17.618Z,101122.20
2023-04-18T03:29:46.353Z,101127.82
2023-04-18T03:32:14.696Z,101135.98
2023-04-18T03:34:43.005Z,101142.05
2023-04-18T03:37:11.458Z,101146.65
2023-04-18T03:39:44.542Z,101147.58
2023-04-18T03:42:12.778Z,101147.52
2023-04-18T03:44:41.554Z,101142.02
2023-04-18T03:47:09.835Z,101139.35
2023-04-18T03:49:40.648Z,101129.49
2023-04-18T03:52:09.351Z,101119.95
2023-04-18T03:54:37.589Z,101109.48
2023-04-18T03:57:06.074Z,101086.29
2023-04-18T03:59:36.033Z,101104.86
2023-04-18T04:02:04.525Z,101121.36
2023-04-18T04:04:33.917Z,101115.85
2023-04-18T04:07:02.177Z,101120.09
2023-04-18T04:09:30.661Z,101132.55
2023-04-18T04:11:58.915Z,101140.69
2023-04-18T04:14:28.609Z,101130.56
2023-04-18T04:16:56.764Z,101133.34
2023-04-18T04:19:24.934Z,101137.36
2023-04-18T04:22:06.689Z,101131.70
2023-04-18T04:24:35.641Z,101124.70
2023-04-18T04:27:05.304Z,101133.55
2023-04-18T04:29:36.244Z,101132.61
2023-04-18T04:32:06.719Z,101129.31
2023-04-18T04:34:38.426Z,101125.86
2023-04-18T04:37:08.442Z,101126.31
2023-04-18T04:39:42.013Z,101129.38
2023-04-18T04:42:30.070Z,101126.16
2023-04-18T04:45:03.935Z,101134.63
2023-04-18T04:47:32.517Z,101136.33
2023-04-18T04:50:00.727Z,101137.79
2023-04-18T04:52:28.907Z,101138.04
2023-04-18T04:54:57.082Z,101136.98
2023-04-18T04:57:26.064Z,101137.40
2023-04-18T04:59:54.346Z,101139.02
2023-04-18T05:02:23.667Z,101141.66
2023-04-18T05:04:52.096Z,101150.08
2023-04-18T05:07:20.457Z,101147.88
2023-04-18T05:09:48.630Z,101149.85
2023-04-18T05:12:16.800Z,101152.87
2023-04-18T05:14:44.923Z,101151.22
2023-04-18T05:17:13.133Z,101151.14
2023-04-18T05:19:43.431Z,101151.03
2023-04-18T05:22:11.644Z,101143.98
2023-04-18T05:24:39.736Z,101145.01
2023-04-18T05:27:07.973Z,101144.84
2023-04-18T05:29:36.329Z,101146.64
2023-04-18T05:32:04.977Z,101143.02
2023-04-18T05:34:38.038Z,101146.23
2023-04-18T05:37:06.939Z,101147.58
2023-04-18T05:39:35.276Z,101148.36
2023-04-18T05:42:03.720Z,101151.33
2023-04-18T05:44:32.982Z,101150.84
2023-04-18T05:47:01.841Z,101143.55
2023-04-18T05:49:30.860Z,101139.95
2023-04-18T05:51:59.098Z,101134.77
2023-04-18T05:54:31.068Z,101137.22
2023-04-18T05:57:04.798Z,101133.89
2023-04-18T05:59:36.991Z,101134.20
2023-04-18T06:02:05.292Z,101140.88
2023-04-18T06:04:35.275Z,101140.73
2023-04-18T06:07:03.972Z,101137.09
2023-04-18T06:09:33.705Z,101131.20
2023-04-18T06:12:06.143Z,101133.65
2023-04-18T06:14:43.924Z,101135.48
2023-04-18T06:17:16.135Z,101141.42
2023-04-18T06:19:44.863Z,101142.34
2023-04-18T06:22:13.472Z,101142.55
2023-04-18T06:24:45.079Z,101142.30
2023-04-18T06:27:24.418Z,101143.11
2023-04-18T06:30:00.646Z,101147.47
2023-04-18T06:32:29.251Z,101146.77
2023-04-18T06:34:57.569Z,101145.89
2023-04-18T06:37:26.603Z,101146.20
2023-04-18T06:40:08.165Z,101148.38
2023-04-18T06:42:37.425Z,101147.97
2023-04-18T06:45:11.179Z,101152.67
2023-04-18T06:47:42.001Z,101146.52
2023-04-18T06:50:12.078Z,101149.72
2023-04-18T06:52:44.552Z,101150.20
2023-04-18T06:55:13.227Z,101159.92
2023-04-18T06:57:42.075Z,101153.14
2023-04-18T07:00:19.329Z,101150.73
2023-04-18T07:02:51.031Z,101156.01
2023-04-18T07:05:19.440Z,101156.66
2023-04-18T07:07:47.965Z,101155.55
2023-04-18T07:10:17.841Z,101153.52
2023-04-18T07:12:47.613Z,101151.66
2023-04-18T07:15:15.933Z,101155.24
2023-04-18T07:17:44.236Z,101153.48
2023-04-18T07:20:14.259Z,101160.80
2023-04-18T07:22:48.172Z,101161.81
2023-04-18T07:25:25.064Z,101153.43
2023-04-18T07:27:54.027Z,101157.52
2023-04-18T07:30:28.230Z,101155.52
2023-04-18T07:32:56.791Z,101157.05
2023-04-18T07:35:25.717Z,101154.48
2023-04-18T07:37:54.462Z,101155.67
2023-04-18T07:40:22.916Z,101153.09
2023-04-18T07:42:51.087Z,101153.81
2023-04-18T07:45:19.506Z,101154.14
2023-04-18T07:47:48.618Z,101147.70
2023-04-18T07:50:18.106Z,101150.60
2023-04-18T07:52:54.885Z,101141.86
2023-04-18T07:55:29.040Z,101146.88
2023-04-18T07:57:57.779Z,101153.41
2023-04-18T08:00:26.465Z,101152.73
2023-04-18T08:02:58.054Z,101147.96
2023-04-18T08:05:33.677Z,101147.59
2023-04-18T08:08:02.124Z,101149.55
2023-04-18T08:10:37.157Z,101152.80
2023-04-18T08:13:13.994Z,101156.61
2023-04-18T08:15:45.561Z,101150.73
2023-04-18T08:18:13.872Z,101151.75
2023-04-18T08:20:42.221Z,101153.06
2023-04-18T08:23:12.934Z,101153.75
2023-04-18T08:25:41.694Z,101151.17
2023-04-18T08:28:10.198Z,101153.33
2023-04-18T08:30:39.783Z,101151.35
2023-04-18T08:33:08.639Z,101153.55
2023-04-18T08:35:39.504Z,101148.29
2023-04-18T08:38:08.098Z,101146.31
2023-04-18T08:40:37.703Z,101147.45
2023-04-18T08:43:09.508Z,101146.29
2023-04-18T08:45:38.732Z,101147.70
2023-04-18T08:48:07.832Z,101149.61
2023-04-18T08:50:38.583Z,101152.70
2023-04-18T08:53:06.911Z,101157.79
2023-04-18T08:55:35.742Z,101160.59
2023-04-18T08:58:07.271Z,101161.89
2023-04-18T09:00:35.739Z,101162.02
2023-04-18T09:03:12.948Z,101155.13
2023-04-18T09:05:49.162Z,101156.70
2023-04-18T09:08:24.348Z,101161.34
2023-04-18T09:10:53.375Z,101161.89
2023-04-18T09:13:38.864Z,101157.73
2023-04-18T09:16:11.346Z,101155.67
2023-04-18T09:18:41.083Z,101150.23
2023-04-18T09:21:19.612Z,101149.18
2023-04-18T09:23:47.940Z,101149.98
2023-04-18T09:26:33.091Z,101154.84
2023-04-18T09:29:01.484Z,101159.08
2023-04-18T09:31:30.528Z,101156.84
2023-04-18T09:34:00.780Z,101156.09
2023-04-18T09:36:29.225Z,101152.34
2023-04-18T09:38:57.549Z,101152.17
2023-04-18T09:41:25.733Z,101151.48
2023-04-18T09:44:15.820Z,101148.09
2023-04-18T09:46:47.532Z,101148.08
2023-04-18T09:49:18.359Z,101151.27
2023-04-18T09:51:47.227Z,101151.14
2023-04-18T09:54:16.213Z,101144.33
2023-04-18T09:56:44.888Z,101144.63
2023-04-18T09:59:13.360Z,101146.10
2023-04-18T10:01:42.016Z,101146.00
2023-04-18T10:04:10.419Z,101147.45
2023-04-18T10:06:40.015Z,101148.98
2023-04-18T10:09:09.449Z,101145.63
2023-04-18T10:11:40.572Z,101142.80
2023-04-18T10:14:12.008Z,101142.17
2023-04-18T10:16:40.875Z,101140.16
2023-04-18T10:19:24.960Z,101140.10
2023-04-18T10:22:00.624Z,101141.29
2023-04-18T10:24:56.111Z,101142.51
2023-04-18T10:27:49.255Z,101145.70
2023-04-18T10:30:18.354Z,101143.91
2023-04-18T10:32:46.802Z,101141.39
2023-04-18T10:35:15.220Z,101141.48
2023-04-18T10:37:53.049Z,101138.14
2023-04-18T10:40:34.297Z,101135.73
2023-04-18T10:43:02.838Z,101132.15
2023-04-18T10:45:33.764Z,101129.70
2023-04-18T10:48:25.707Z,101130.82
2023-04-18T10:51:13.162Z,101125.52
2023-04-18T10:53:57.111Z,101127.96
2023-04-18T10:56:28.256Z,101125.52
2023-04-18T10:58:56.763Z,101123.15
2023-04-18T11:01:32.524Z,101121.52
2023-04-18T11:04:01.564Z,101122.94
2023-04-18T11:06:31.513Z,101126.02
2023-04-18T11:09:13.631Z,101122.73
2023-04-18T11:11:44.510Z,101121.48
2023-04-18T11:14:12.899Z,101116.23
2023-04-18T11:16:41.576Z,101114.39
2023-04-18T11:19:21.019Z,101115.73
2023-04-18T11:21:49.511Z,101113.30
2023-04-18T11:24:23.249Z,101111.13
2023-04-18T11:26:56.211Z,101105.91
2023-04-18T11:29:24.759Z,101101.61
2023-04-18T11:31:58.262Z,101098.90
2023-04-18T11:34:31.192Z,101093.31
2023-04-18T11:36:59.816Z,101093.27
2023-04-18T11:39:31.475Z,101095.27
2023-04-18T11:41:59.777Z,101094.59
2023-04-18T11:44:29.716Z,101093.88
2023-04-18T11:46:57.958Z,101093.86
2023-04-18T11:49:30.551Z,101096.73
2023-04-18T11:51:59.579Z,101101.57
2023-04-18T11:54:44.142Z,101109.39
2023-04-18T11:57:28.784Z,101111.92
2023-04-18T11:59:58.468Z,101115.08
2023-04-18T12:02:38.810Z,101110.39
2023-04-18T12:05:07.879Z,101109.58
2023-04-18T12:07:39.022Z,101105.65
2023-04-18T12:10:20.943Z,101100.80
2023-04-18T12:12:53.480Z,101099.45
2023-04-18T12:15:25.587Z,101095.64
2023-04-18T12:17:58.270Z,101091.41
2023-04-18T12:20:50.601Z,101090.81
2023-04-18T12:23:40.403Z,101086.92
2023-04-18T12:26:12.853Z,101085.34
2023-04-18T12:28:44.384Z,101083.66
2023-04-18T12:31:13.117Z,101082.23
2023-04-18T12:33:41.315Z,101075.89
2023-04-18T12:36:10.153Z,101077.48
2023-04-18T12:38:38.467Z,101076.95
2023-04-18T12:41:06.787Z,101075.23
2023-04-18T12:43:35.213Z,101074.42
2023-04-18T12:46:03.457Z,101072.84
2023-04-18T12:48:31.713Z,101071.52
2023-04-18T12:50:59.789Z,101069.84
2023-04-18T12:53:28.187Z,101073.69
2023-04-18T12:55:56.385Z,101072.89
2023-04-18T12:58:24.585Z,101068.61
2023-04-18T13:00:53.190Z,101065.05
2023-04-18T13:03:21.809Z,101063.27
2023-04-18T13:05:50.416Z,101059.05
2023-04-18T13:08:18.827Z,101058.94
2023-04-18T13:10:48.617Z,101057.36
2023-04-18T13:13:17.432Z,101053.91
2023-04-18T13:15:46.046Z,101052.27
2023-04-18T13:18:14.393Z,101055.54
2023-04-18T13:20:44.073Z,101051.98
2023-04-18T13:23:12.461Z,101050.65
2023-04-18T13:25:40.635Z,101050.42
2023-04-18T13:28:08.820Z,101052.88
2023-04-18T13:30:37.140Z,101055.52
2023-04-18T13:33:06.261Z,101051.80
2023-04-18T13:35:34.415Z,101050.55
2023-04-18T13:38:02.559Z,101049.27
2023-04-18T13:40:30.886Z,101047.83
2023-04-18T13:42:59.289Z,101047.24
2023-04-18T13:45:27.609Z,101044.16
2023-04-18T13:47:56.249Z,101041.90
2023-04-18T13:50:24.599Z,101039.31
2023-04-18T13:52:54.837Z,101039.07
2023-04-18T13:55:23.163Z,101037.08
2023-04-18T13:57:51.381Z,101034.92
2023-04-18T14:00:20.651Z,101031.58
2023-04-18T14:02:49.417Z,101029.27
2023-04-18T14:05:17.989Z,101023.24
2023-04-18T14:07:46.362Z,101018.42
2023-04-18T14:10:14.983Z,101017.86
2023-04-18T14:12:43.731Z,101019.42
2023-04-18T14:15:12.126Z,101023.34
2023-04-18T14:17:41.500Z,101024.77
2023-04-18T14:20:11.014Z,101023.29
2023-04-18T14:22:39.822Z,101021.73
2023-04-18T14:25:08.826Z,101020.31
2023-04-18T14:27:37.567Z,101021.09
2023-04-18T14:30:10.902Z,101023.52
2023-04-18T14:32:39.439Z,101021.84
2023-04-18T14:35:08.218Z,101023.56
2023-04-18T14:37:36.670Z,101019.98
2023-04-18T14:40:05.681Z,101022.79
2023-04-18T14:42:34.112Z,101017.08
2023-04-18T14:45:02.228Z,101017.97
2023-04-18T14:47:34.553Z,101015.13
2023-04-18T14:50:02.965Z,101012.30
2023-04-18T14:52:34.730Z,101012.00
2023-04-18T14:55:03.718Z,101009.29
2023-04-18T14:57:32.392Z,101008.74
2023-04-18T15:00:00.677Z,101007.66
2023-04-18T15:02:29.934Z,101008.57
2023-04-18T15:04:59.182Z,101009.27
2023-04-18T15:07:27.509Z,101003.25
2023-04-18T15:09:55.816Z,101002.63
2023-04-18T15:12:24.133Z,101007.50
2023-04-18T15:14:54.233Z,101005.79
2023-04-18T15:17:22.499Z,101004.52
2023-04-18T15:19:50.744Z,100997.91
2023-04-18T15:22:18.802Z,100996.31
2023-04-18T15:24:47.774Z,100988.77
2023-04-18T15:27:16.213Z,100988.91
2023-04-18T15:29:44.353Z,100985.51
2023-04-18T15:32:12.864Z,100982.39
2023-04-18T15:34:41.393Z,100982.73
2023-04-18T15:37:09.665Z,100984.34
2023-04-18T15:39:38.961Z,100986.30
2023-04-18T15:42:07.177Z,100985.67
2023-04-18T15:44:35.399Z,100987.70
2023-04-18T15:47:03.582Z,100990.23
2023-04-18T15:49:32.212Z,100983.92
2023-04-18T15:52:00.397Z,100985.13
2023-04-18T15:54:28.948Z,100984.27
2023-04-18T15:56:58.388Z,100990.23
2023-04-18T15:59:26.548Z,100991.02
2023-04-18T16:01:54.984Z,100988.45
2023-04-18T16:04:24.984Z,100981.90
2023-04-18T16:07:02.362Z,100983.45
2023-04-18T16:09:30.744Z,100979.61
2023-04-18T16:11:58.858Z,100983.26
2023-04-18T16:14:27.141Z,100988.16
2023-04-18T16:16:55.758Z,100985.40
2023-04-18T16:19:23.954Z,100985.64
2023-04-18T16:21:52.378Z,100982.75
2023-04-18T16:24:20.547Z,100983.21
2023-04-18T16:26:48.798Z,100978.21
2023-04-18T16:29:16.930Z,100975.57
2023-04-18T16:31:45.214Z,100977.83
2023-04-18T16:34:15.841Z,100979.98
2023-04-18T16:36:44.412Z,100978.73
2023-04-18T16:39:12.969Z,100973.77
2023-04-18T16:41:41.114Z,100974.79
2023-04-18T16:44:09.457Z,100975.58
2023-04-18T16:46:38.921Z,100978.55
2023-04-18T16:49:07.157Z,100974.30
2023-04-18T16:51:37.316Z,100975.67
2023-04-18T16:54:06.179Z,100973.00
2023-04-18T16:56:34.348Z,100973.70
2023-04-18T16:59:04.205Z,100974.24
2023-04-18T17:01:34.126Z,100977.05
2023-04-18T17:04:02.467Z,100979.54
2023-04-18T17:06:32.168Z,100977.13
2023-04-18T17:09:00.905Z,100977.64
2023-04-18T17:11:30.268Z,100981.19
2023-04-18T17:13:58.420Z,100980.98
2023-04-18T17:16:26.778Z,100983.06
2023-04-18T17:18:56.142Z,100987.73
2023-04-18T17:21:24.410Z,100994.05
2023-04-18T17:23:53.554Z,100997.53
2023-04-18T17:26:24.348Z,100997.17
2023-04-18T17:28:53.295Z,101000.29
2023-04-18T17:31:21.540Z,101002.48
2023-04-18T17:33:51.002Z,101001.10
2023-04-18T17:36:19.115Z,101001.04
2023-04-18T17:38:50.484Z,101005.81
2023-04-18T17:41:19.588Z,101010.31
2023-04-18T17:43:47.889Z,101012.17
2023-04-18T17:46:16.201Z,101010.09
2023-04-18T17:48:44.407Z,101009.27
2023-04-18T17:51:12.866Z,101009.17
2023-04-18T17:53:41.150Z,101014.88
2023-04-18T17:56:11.108Z,101013.38
2023-04-18T17:58:39.463Z,101009.67
2023-04-18T18:01:18.990Z,101010.95
2023-04-18T18:03:48.310Z,101008.50
2023-04-18T18:06:16.630Z,101004.79
2023-04-18T18:08:45.010Z,101003.20
2023-04-18T18:11:13.386Z,101003.20
2023-04-18T18:13:42.373Z,101002.36
2023-04-18T18:16:12.802Z,100999.05
2023-04-18T18:18:41.917Z,100993.98
2023-04-18T18:21:11.598Z,100991.15
2023-04-18T18:23:39.949Z,100986.44
2023-04-18T18:26:10.043Z,100990.80
2023-04-18T18:28:38.350Z,100994.06
2023-04-18T18:31:06.542Z,100992.29
2023-04-18T18:33:35.867Z,100993.61
2023-04-18T18:36:04.261Z,100992.09
2023-04-18T18:38:33.008Z,100990.42
2023-04-18T18:41:03.677Z,100996.61
2023-04-18T18:43:32.393Z,101004.58
2023-04-18T18:46:00.736Z,101000.91
2023-04-18T18:48:29.490Z,101008.64
2023-04-18T18:50:58.751Z,101010.39
2023-04-18T18:53:26.944Z,101008.33
2023-04-18T18:55:55.179Z,101010.95
2023-04-18T18:58:23.306Z,101010.79
2023-04-18T19:00:51.708Z,100997.96
2023-04-18T19:03:21.422Z,100992.80
2023-04-18T19:05:49.954Z,100985.39
2023-04-18T19:08:18.720Z,100982.02
2023-04-18T19:10:46.979Z,100983.13
2023-04-18T19:13:18.921Z,100985.27
2023-04-18T19:15:47.036Z,100988.35
2023-04-18T19:18:15.448Z,100987.48
2023-04-18T19:20:43.872Z,100987.19
2023-04-18T19:23:11.986Z,100981.98
2023-04-18T19:25:40.093Z,100979.18
2023-04-18T19:28:08.386Z,100975.97
2023-04-18T19:30:36.574Z,100973.48
2023-04-18T19:33:04.863Z,100974.44
2023-04-18T19:35:33.960Z,100974.48
2023-04-18T19:38:03.322Z,100977.54
2023-04-18T19:40:31.470Z,100978.34
2023-04-18T19:42:59.581Z,100978.46
2023-04-18T19:45:27.763Z,100977.73
2023-04-18T19:47:56.551Z,100979.11
2023-04-18T19:50:24.830Z,100978.19
2023-04-18T19:52:53.388Z,100969.55
2023-04-18T19:55:21.847Z,100964.83
2023-04-18T19:57:55.628Z,100958.73
2023-04-18T20:00:24.078Z,100955.98
2023-04-18T20:02:52.523Z,100956.38
2023-04-18T20:05:21.231Z,100956.15
2023-04-18T20:07:50.252Z,100958.64
2023-04-18T20:10:22.551Z,100958.30
2023-04-18T20:12:51.231Z,100957.65
2023-04-18T20:15:19.430Z,100953.00
2023-04-18T20:17:48.935Z,100948.41
2023-04-18T20:20:17.057Z,100947.20
2023-04-18T20:22:47.700Z,100949.21
2023-04-18T20:25:15.886Z,100949.69
2023-04-18T20:27:44.169Z,100953.30
2023-04-18T20:30:12.491Z,100957.05
2023-04-18T20:32:40.924Z,100956.67
2023-04-18T20:35:09.556Z,100957.30
2023-04-18T20:37:39.169Z,100952.41
2023-04-18T20:40:11.109Z,100950.34
2023-04-18T20:42:39.821Z,100948.45
2023-04-18T20:45:11.350Z,100946.90
2023-04-18T20:47:41.475Z,100946.15
2023-04-18T20:50:10.314Z,100945.49
2023-04-18T20:52:38.621Z,100945.86
2023-04-18T20:55:06.861Z,100948.73
2023-04-18T20:57:36.055Z,100951.34
2023-04-18T21:00:06.807Z,100938.70
2023-04-18T21:02:35.198Z,100935.09
2023-04-18T21:05:03.550Z,100938.09
2023-04-18T21:07:32.471Z,100938.72
2023-04-18T21:10:00.701Z,100935.98
2023-04-18T21:12:29.111Z,100935.81
2023-04-18T21:14:57.606Z,100934.58
2023-04-18T21:17:26.338Z,100929.08
2023-04-18T21:19:55.011Z,100930.18
2023-04-18T21:22:23.200Z,100921.09
2023-04-18T21:24:51.730Z,100912.61
2023-04-18T21:27:19.821Z,100905.33
2023-04-18T21:29:48.113Z,100900.30
2023-04-18T21:32:16.359Z,100894.32
2023-04-18T21:34:44.425Z,100892.82
2023-04-18T21:37:12.942Z,100890.95
2023-04-18T21:39:43.417Z,100890.27
2023-04-18T21:42:11.567Z,100892.91
2023-04-18T21:44:39.807Z,100890.13
2023-04-18T21:47:07.960Z,100890.05
2023-04-18T21:49:36.523Z,100888.41
2023-04-18T21:52:04.828Z,100885.55
2023-04-18T21:54:32.954Z,100888.06
2023-04-18T21:57:02.821Z,100886.40
2023-04-18T21:59:31.372Z,100892.13
2023-04-18T22:01:59.987Z,100891.41
2023-04-18T22:04:28.756Z,100894.87
2023-04-18T22:06:57.610Z,100886.99
2023-04-18T22:09:26.114Z,100884.46
2023-04-18T22:11:57.026Z,100884.99
2023-04-18T22:14:26.174Z,100886.02
2023-04-18T22:16:54.880Z,100885.85
2023-04-18T22:19:25.218Z,100886.30
2023-04-18T22:21:53.425Z,100882.17
2023-04-18T22:24:22.065Z,100883.96
2023-04-18T22:26:50.308Z,100883.96
2023-04-18T22:29:18.581Z,100880.81
2023-04-18T22:31:46.757Z,100879.79
2023-04-18T22:34:15.000Z,100874.28
2023-04-18T22:36:45.778Z,100876.73
2023-04-18T22:39:14.242Z,100879.41
2023-04-18T22:41:42.560Z,100875.92
2023-04-18T22:44:10.732Z,100882.63
2023-04-18T22:46:39.058Z,100882.44
2023-04-18T22:49:07.617Z,100876.45
2023-04-18T22:51:35.840Z,100875.63
2023-04-18T22:54:04.021Z,100871.23
2023-04-18T22:56:32.182Z,100864.19
2023-04-18T22:59:00.289Z,100861.69
2023-04-18T23:01:28.561Z,100860.50
2023-04-18T23:03:56.879Z,100855.05
2023-04-18T23:06:25.170Z,100853.35
2023-04-18T23:08:53.333Z,100849.20
2023-04-18T23:11:21.687Z,100849.65
2023-04-18T23:13:50.271Z,100843.92
2023-04-18T23:16:18.364Z,100838.38
2023-04-18T23:18:46.585Z,100837.59
2023-04-18T23:21:14.785Z,100835.56
2023-04-18T23:23:43.154Z,100835.57
2023-04-18T23:26:15.705Z,100834.16
2023-04-18T23:28:44.117Z,100830.79
2023-04-18T23:31:12.436Z,100830.06
2023-04-18T23:33:40.690Z,100829.81
2023-04-18T23:36:09.474Z,100827.77
2023-04-18T23:38:38.596Z,100825.99
2023-04-18T23:41:06.965Z,100825.05
2023-04-18T23:43:35.505Z,100824.73
2023-04-18T23:46:03.650Z,100820.64
2023-04-18T23:48:32.380Z,100819.82
2023-04-18T23:51:00.798Z,100817.60
2023-04-18T23:53:29.088Z,100816.77
2023-04-18T23:55:57.461Z,100812.54
2023-04-18T23:58:26.786Z,100809.54
